Time;durP1;ratioP1;P1;durP2;ratioP2;P2;SDS_P1;SDS_P2;PMS_P1;PMS_P2;Temp;Humidity;BMP_temperature;BMP_pressure;BME280_temperature;BME280_humidity;BME280_pressure;Samples;Min_cycle;Max_cycle;Signal;HPM_P1;HPM_P2
2023/08/17 00:02:12;;;;;;;3.78;1.77;;;16.80;99.90;;;;;;5022619;28;20037;-83
2023/08/17 00:04:38;;;;;;;6.78;1.83;;;16.80;99.90;;;;;;5023448;28;20148;-84
2023/08/17 00:07:04;;;;;;;6.38;1.73;;;16.80;99.90;;;;;;5010293;28;20060;-84
2023/08/17 00:09:30;;;;;;;2.90;1.38;;;16.80;99.90;;;;;;5014983;28;20026;-83
2023/08/17 00:11:55;;;;;;;3.25;1.55;;;16.80;99.90;;;;;;5028237;28;20030;-83
2023/08/17 00:14:21;;;;;;;2.17;1.30;;;16.80;99.90;;;;;;5013074;28;20028;-83
2023/08/17 00:16:49;;;;;;;8.50;1.90;;;16.80;99.90;;;;;;5032926;28;20557;-84
2023/08/17 00:19:14;;;;;;;3.65;1.60;;;16.80;99.90;;;;;;5024430;28;20045;-83
2023/08/17 00:21:40;;;;;;;7.40;1.85;;;16.70;99.90;;;;;;5027619;28;20026;-83
2023/08/17 00:24:05;;;;;;;9.38;2.22;;;16.80;99.90;;;;;;5029198;28;20046;-84
2023/08/17 00:26:31;;;;;;;2.90;1.20;;;16.70;99.90;;;;;;5022617;28;20018;-82
2023/08/17 00:28:56;;;;;;;3.05;1.75;;;16.70;99.90;;;;;;5032417;28;20076;-84
2023/08/17 00:31:22;;;;;;;3.92;1.50;;;16.70;99.90;;;;;;5020171;28;20045;-84
2023/08/17 00:33:48;;;;;;;3.45;1.38;;;16.60;99.90;;;;;;5028219;28;20026;-83
2023/08/17 00:36:13;;;;;;;4.20;1.80;;;16.60;99.90;;;;;;5028519;28;20026;-84
2023/08/17 00:38:39;;;;;;;13.68;1.92;;;16.60;99.90;;;;;;5025277;28;20054;-82
2023/08/17 00:41:04;;;;;;;7.28;1.90;;;16.60;99.90;;;;;;5031279;28;20025;-84
2023/08/17 00:43:30;;;;;;;4.90;1.30;;;16.60;99.90;;;;;;5025346;28;20018;-82
2023/08/17 00:45:56;;;;;;;3.72;2.33;;;16.50;99.90;;;;;;5027843;28;20141;-84
2023/08/17 00:48:21;;;;;;;4.45;1.95;;;16.50;99.90;;;;;;5026458;28;20022;-84
2023/08/17 00:50:49;;;;;;;6.82;1.67;;;16.50;99.90;;;;;;5029401;28;20713;-84
2023/08/17 00:53:16;;;;;;;7.97;1.70;;;16.50;99.90;;;;;;5018616;28;20081;-84
2023/08/17 00:55:42;;;;;;;4.68;1.40;;;16.50;99.90;;;;;;5027296;28;20056;-84
2023/08/17 00:58:08;;;;;;;5.10;1.52;;;16.50;99.90;;;;;;5026682;28;20088;-84
2023/08/17 01:00:34;;;;;;;2.05;1.55;;;16.50;99.90;;;;;;5025711;28;20528;-83
2023/08/17 01:02:59;;;;;;;8.05;2.08;;;16.50;99.90;;;;;;5023171;28;20124;-84
2023/08/17 01:05:25;;;;;;;2.95;1.40;;;16.50;99.90;;;;;;5026469;28;20619;-84
2023/08/17 01:07:50;;;;;;;5.80;1.80;;;16.50;99.90;;;;;;5022841;28;20024;-83
2023/08/17 01:10:16;;;;;;;2.17;1.30;;;16.40;99.90;;;;;;5026814;28;20053;-84
2023/08/17 01:13:13;;;;;;;2.88;1.48;;;16.40;99.90;;;;;;5023864;28;20429;-84
2023/08/17 01:15:44;;;;;;;4.63;1.70;;;16.40;99.90;;;;;;5026397;28;20033;-84
2023/08/17 01:18:27;;;;;;;3.30;1.58;;;16.40;99.90;;;;;;5027415;28;20032;-82
2023/08/17 01:20:54;;;;;;;4.30;1.60;;;16.30;99.90;;;;;;5022497;28;20041;-85
2023/08/17 01:23:20;;;;;;;3.53;1.60;;;16.30;99.90;;;;;;5031175;28;20026;-83
2023/08/17 01:25:45;;;;;;;4.35;2.22;;;16.20;99.90;;;;;;5025109;28;20026;-82
2023/08/17 01:28:11;;;;;;;2.58;1.52;;;16.20;99.90;;;;;;5021160;28;20032;-83
2023/08/17 01:31:02;;;;;;;5.95;1.65;;;16.20;99.90;;;;;;5025769;28;20441;-85
2023/08/17 01:33:47;;;;;;;5.55;1.30;;;16.20;99.90;;;;;;5027889;28;20025;-83
2023/08/17 01:36:24;;;;;;;6.07;1.67;;;16.20;99.90;;;;;;5028699;28;20052;-84
2023/08/17 01:38:52;;;;;;;9.00;1.40;;;16.10;99.90;;;;;;5028370;28;20021;-85
2023/08/17 01:41:20;;;;;;;4.88;1.42;;;16.10;99.90;;;;;;5029942;28;20040;-84
2023/08/17 01:43:47;;;;;;;5.85;1.50;;;16.10;99.90;;;;;;5023108;28;20045;-84
2023/08/17 01:46:15;;;;;;;10.63;1.75;;;16.10;99.90;;;;;;5027902;28;20028;-81
2023/08/17 01:48:41;;;;;;;5.07;2.20;;;16.10;99.90;;;;;;5016716;28;20112;-83
2023/08/17 01:51:06;;;;;;;1.85;1.52;;;16.10;99.90;;;;;;5020604;28;20496;-82
2023/08/17 01:53:32;;;;;;;2.90;1.95;;;16.10;99.90;;;;;;5026496;28;20109;-84
2023/08/17 01:55:57;;;;;;;2.25;1.60;;;16.10;99.90;;;;;;5021646;28;20029;-84
2023/08/17 01:58:23;;;;;;;4.65;1.38;;;16.10;99.90;;;;;;5023671;28;20025;-85
2023/08/17 02:00:48;;;;;;;5.78;1.60;;;16.10;99.90;;;;;;5024676;28;20033;-84
2023/08/17 02:03:14;;;;;;;1.70;1.45;;;16.10;99.90;;;;;;5025829;28;20559;-83
2023/08/17 02:05:44;;;;;;;2.28;1.35;;;16.10;99.90;;;;;;5026119;28;20392;-84
2023/08/17 02:08:10;;;;;;;3.10;1.30;;;16.10;99.90;;;;;;5019259;28;20073;-83
2023/08/17 02:10:36;;;;;;;4.60;1.80;;;16.10;99.90;;;;;;5030233;28;20021;-84
2023/08/17 02:13:02;;;;;;;2.47;1.27;;;16.10;99.90;;;;;;5019304;28;20037;-83
2023/08/17 02:15:27;;;;;;;1.77;1.20;;;16.20;99.90;;;;;;5022343;28;20040;-83
2023/08/17 02:17:53;;;;;;;3.88;1.77;;;16.20;99.90;;;;;;5023947;28;20022;-85
2023/08/17 02:20:19;;;;;;;2.10;1.38;;;16.20;99.90;;;;;;5028527;28;20076;-84
2023/08/17 02:22:44;;;;;;;5.75;1.67;;;16.20;99.90;;;;;;5020406;28;20037;-84
2023/08/17 02:25:10;;;;;;;2.65;1.02;;;16.20;99.90;;;;;;5026603;28;20071;-84
2023/08/17 02:27:35;;;;;;;7.28;1.58;;;16.20;99.90;;;;;;5024344;28;20029;-83
2023/08/17 02:30:01;;;;;;;5.18;1.70;;;16.20;99.90;;;;;;5022616;28;20037;-82
2023/08/17 02:32:27;;;;;;;4.97;1.70;;;16.20;99.90;;;;;;5027324;28;20041;-82
2023/08/17 02:34:53;;;;;;;7.95;2.38;;;16.20;99.90;;;;;;5026879;28;20363;-83
2023/08/17 02:37:18;;;;;;;2.28;1.08;;;16.20;99.90;;;;;;5028069;28;20128;-82
2023/08/17 02:39:44;;;;;;;4.22;1.63;;;16.20;99.90;;;;;;5030209;28;20030;-83
2023/08/17 02:42:09;;;;;;;7.25;2.00;;;16.20;99.90;;;;;;5030521;28;20022;-82
2023/08/17 02:44:35;;;;;;;13.18;1.73;;;16.20;99.90;;;;;;5023796;28;20027;-82
2023/08/17 02:47:00;;;;;;;3.47;1.17;;;16.20;99.90;;;;;;5022661;28;20132;-82
2023/08/17 02:49:26;;;;;;;6.25;1.88;;;16.20;99.90;;;;;;5022757;28;20472;-82
2023/08/17 02:51:51;;;;;;;6.43;1.80;;;16.20;99.90;;;;;;5035802;28;20014;-78
2023/08/17 02:54:17;;;;;;;3.80;1.92;;;16.20;99.90;;;;;;5034171;28;20052;-82
2023/08/17 02:56:42;;;;;;;4.63;1.27;;;16.20;99.90;;;;;;5041328;28;20036;-83
2023/08/17 02:59:08;;;;;;;4.22;2.13;;;16.20;99.90;;;;;;5028784;28;20057;-84
2023/08/17 03:01:33;;;;;;;3.00;1.08;;;16.20;99.90;;;;;;5030773;28;20037;-84
2023/08/17 03:03:59;;;;;;;4.25;1.33;;;16.20;99.90;;;;;;5021726;28;20029;-83
2023/08/17 03:06:24;;;;;;;2.88;1.40;;;16.20;99.90;;;;;;5033062;28;20030;-84
2023/08/17 03:08:52;;;;;;;1.92;1.40;;;16.20;99.90;;;;;;5026388;28;20022;-84
2023/08/17 03:11:17;;;;;;;3.65;1.80;;;16.20;99.90;;;;;;5033059;28;20022;-83
2023/08/17 03:13:45;;;;;;;2.22;1.35;;;16.20;99.90;;;;;;5026288;28;20496;-84
2023/08/17 03:16:11;;;;;;;2.38;1.30;;;16.10;99.90;;;;;;5024869;28;20026;-82
2023/08/17 03:18:36;;;;;;;9.13;1.40;;;16.10;99.90;;;;;;5031586;28;20036;-83
2023/08/17 03:21:02;;;;;;;3.20;1.40;;;16.10;99.90;;;;;;5023734;28;20476;-83
2023/08/17 03:23:27;;;;;;;9.95;2.13;;;16.10;99.90;;;;;;5032351;28;20397;-84
2023/08/17 03:25:54;;;;;;;4.28;1.42;;;16.10;99.90;;;;;;5026962;28;20076;-84
2023/08/17 03:28:19;;;;;;;4.82;2.35;;;16.10;99.90;;;;;;5022187;28;20076;-84
2023/08/17 03:30:45;;;;;;;3.15;1.52;;;16.20;99.90;;;;;;5029268;28;20022;-82
2023/08/17 03:33:10;;;;;;;4.57;1.55;;;16.10;99.90;;;;;;5023486;28;20061;-83
2023/08/17 03:35:36;;;;;;;3.38;1.63;;;16.20;99.90;;;;;;5028490;28;20079;-82
2023/08/17 03:38:01;;;;;;;3.13;1.50;;;16.20;99.90;;;;;;5021556;28;20021;-83
2023/08/17 03:40:27;;;;;;;3.15;1.58;;;16.10;99.90;;;;;;5030686;28;20032;-82
2023/08/17 03:42:53;;;;;;;1.42;1.17;;;16.10;99.90;;;;;;5021389;28;20061;-84
2023/08/17 03:45:18;;;;;;;3.08;1.20;;;16.10;99.90;;;;;;5012701;28;20022;-82
2023/08/17 03:47:44;;;;;;;6.60;1.33;;;16.10;99.90;;;;;;5033623;28;20040;-82
2023/08/17 03:50:10;;;;;;;2.90;1.65;;;16.20;99.90;;;;;;5025152;28;20029;-84
2023/08/17 03:52:36;;;;;;;2.17;1.50;;;16.10;99.90;;;;;;5028726;28;20032;-85
2023/08/17 03:55:01;;;;;;;2.63;1.50;;;16.20;99.90;;;;;;5017344;28;20026;-82
2023/08/17 03:57:27;;;;;;;2.58;1.63;;;16.10;99.90;;;;;;5027424;28;20447;-83
2023/08/17 03:59:52;;;;;;;8.80;1.73;;;16.10;99.90;;;;;;5024509;28;20060;-84
2023/08/17 04:02:18;;;;;;;6.13;1.50;;;16.10;99.90;;;;;;5011759;28;20126;-82
2023/08/17 04:04:43;;;;;;;2.45;2.00;;;16.10;99.90;;;;;;5029375;28;20021;-83
2023/08/17 04:07:09;;;;;;;4.60;1.92;;;16.10;99.90;;;;;;5023144;28;20037;-83
2023/08/17 04:09:35;;;;;;;4.30;1.48;;;16.10;99.90;;;;;;5023240;28;20069;-83
2023/08/17 04:12:04;;;;;;;4.78;1.50;;;16.10;99.90;;;;;;5021006;28;20468;-84
2023/08/17 04:14:29;;;;;;;1.70;1.33;;;16.20;99.90;;;;;;5023702;28;20018;-84
2023/08/17 04:16:56;;;;;;;3.58;1.55;;;16.20;99.90;;;;;;5022252;28;20040;-84
2023/08/17 04:19:22;;;;;;;5.20;1.95;;;16.20;99.90;;;;;;5024064;28;20045;-82
2023/08/17 04:21:47;;;;;;;8.80;1.65;;;16.20;99.90;;;;;;5024618;28;20080;-83
2023/08/17 04:24:13;;;;;;;3.08;1.52;;;16.20;99.90;;;;;;5026984;28;20018;-83
2023/08/17 04:26:38;;;;;;;5.35;1.85;;;16.20;99.90;;;;;;5021406;28;20018;-84
2023/08/17 04:29:04;;;;;;;5.05;1.65;;;16.20;99.90;;;;;;5021461;28;20045;-83
2023/08/17 04:31:29;;;;;;;5.57;2.08;;;16.20;99.90;;;;;;5018713;28;20105;-84
2023/08/17 04:33:55;;;;;;;5.57;1.65;;;16.20;99.90;;;;;;5021377;28;20009;-82
2023/08/17 04:36:20;;;;;;;1.88;1.33;;;16.20;99.90;;;;;;5021664;28;20080;-83
2023/08/17 04:38:46;;;;;;;3.20;1.77;;;16.20;99.90;;;;;;5021465;28;20033;-84
2023/08/17 04:41:11;;;;;;;4.53;1.73;;;16.20;99.90;;;;;;5023774;28;20032;-83
2023/08/17 04:43:37;;;;;;;4.90;2.35;;;16.30;99.90;;;;;;5020127;28;20029;-82
2023/08/17 04:46:02;;;;;;;7.47;2.08;;;16.30;99.90;;;;;;5020421;28;20018;-82
2023/08/17 04:48:28;;;;;;;12.23;2.40;;;16.30;99.90;;;;;;5019015;28;20041;-84
2023/08/17 04:50:53;;;;;;;4.82;2.00;;;16.30;99.90;;;;;;5021029;28;20022;-82
2023/08/17 04:53:19;;;;;;;5.75;2.13;;;16.30;99.90;;;;;;5021898;28;20021;-83
2023/08/17 04:55:44;;;;;;;3.45;1.75;;;16.30;99.90;;;;;;5020052;28;20469;-83
2023/08/17 04:58:10;;;;;;;9.05;1.73;;;16.30;99.90;;;;;;5024195;28;20444;-83
2023/08/17 05:00:37;;;;;;;6.90;1.38;;;16.30;99.90;;;;;;5019692;28;20503;-83
2023/08/17 05:03:03;;;;;;;4.95;1.95;;;16.30;99.90;;;;;;5024568;28;20225;-82
2023/08/17 05:05:28;;;;;;;3.20;1.35;;;16.40;99.90;;;;;;5024536;28;20437;-84
2023/08/17 05:07:54;;;;;;;3.15;1.52;;;16.40;99.90;;;;;;5024366;28;20140;-82
2023/08/17 05:10:19;;;;;;;3.65;1.50;;;16.40;99.90;;;;;;5023010;28;20085;-83
2023/08/17 05:12:46;;;;;;;4.43;2.00;;;16.40;99.90;;;;;;5023464;28;20021;-83
2023/08/17 05:15:12;;;;;;;3.13;1.80;;;16.40;99.90;;;;;;5024948;28;20037;-82
2023/08/17 05:17:38;;;;;;;4.30;1.80;;;16.40;99.90;;;;;;5021900;28;20022;-82
2023/08/17 05:20:04;;;;;;;2.70;1.80;;;16.40;99.90;;;;;;5024380;28;20025;-83
2023/08/17 05:22:30;;;;;;;5.80;1.50;;;16.40;99.90;;;;;;5023137;28;20031;-83
2023/08/17 05:24:55;;;;;;;4.75;1.85;;;16.40;99.90;;;;;;5023403;28;20464;-83
2023/08/17 05:27:21;;;;;;;2.97;1.75;;;16.40;99.90;;;;;;5025589;28;20109;-84
2023/08/17 05:29:46;;;;;;;4.55;1.60;;;16.40;99.90;;;;;;5021790;28;20009;-84
2023/08/17 05:32:12;;;;;;;3.22;1.45;;;16.40;99.90;;;;;;5024558;28;20076;-84
2023/08/17 05:34:38;;;;;;;2.55;1.58;;;16.40;99.90;;;;;;5022381;28;20025;-84
2023/08/17 05:37:03;;;;;;;4.10;1.88;;;16.40;99.90;;;;;;5027065;28;20018;-85
2023/08/17 05:39:29;;;;;;;2.92;1.40;;;16.50;99.90;;;;;;5024559;28;20067;-86
2023/08/17 05:41:54;;;;;;;2.95;1.48;;;16.40;99.90;;;;;;5026230;28;20575;-85
2023/08/17 05:44:20;;;;;;;1.70;1.13;;;16.50;99.90;;;;;;5028088;28;20480;-86
2023/08/17 05:46:46;;;;;;;5.40;1.63;;;16.40;99.90;;;;;;5024191;28;20109;-84
2023/08/17 05:49:11;;;;;;;2.45;1.85;;;16.50;99.90;;;;;;5025350;28;20075;-83
2023/08/17 05:51:37;;;;;;;1.83;1.60;;;16.50;99.90;;;;;;5022344;28;20024;-83
2023/08/17 05:54:03;;;;;;;1.40;1.30;;;16.40;99.90;;;;;;5022771;28;20052;-82
2023/08/17 05:56:28;;;;;;;4.13;1.92;;;16.40;99.90;;;;;;5021389;28;20433;-82
2023/08/17 05:58:54;;;;;;;8.07;2.30;;;16.40;99.90;;;;;;5024100;28;20049;-82
2023/08/17 06:01:20;;;;;;;5.45;1.83;;;16.40;99.90;;;;;;5023028;28;20056;-83
2023/08/17 06:03:45;;;;;;;3.63;1.70;;;16.40;99.90;;;;;;5021217;28;20021;-83
2023/08/17 06:06:11;;;;;;;2.53;1.88;;;16.30;99.90;;;;;;5025239;28;20063;-83
2023/08/17 06:08:36;;;;;;;5.85;2.67;;;16.40;99.90;;;;;;5021214;28;20062;-83
2023/08/17 06:11:02;;;;;;;7.13;2.17;;;16.30;99.90;;;;;;5020616;28;20032;-81
2023/08/17 06:13:28;;;;;;;3.45;2.22;;;16.20;99.90;;;;;;5020464;28;20366;-82
2023/08/17 06:15:55;;;;;;;8.48;2.08;;;16.20;99.90;;;;;;5015510;28;20029;-83
2023/08/17 06:18:21;;;;;;;8.60;2.72;;;16.30;99.90;;;;;;5026118;28;20034;-82
2023/08/17 06:20:47;;;;;;;4.53;2.97;;;16.30;99.90;;;;;;5018442;28;20038;-82
2023/08/17 06:23:13;;;;;;;3.97;2.47;;;16.30;99.90;;;;;;5024391;28;20041;-82
2023/08/17 06:25:39;;;;;;;4.60;2.40;;;16.20;99.90;;;;;;5024340;28;20013;-83
2023/08/17 06:28:05;;;;;;;2.60;2.08;;;16.30;99.90;;;;;;5018361;28;20106;-84
2023/08/17 06:30:31;;;;;;;7.13;1.98;;;16.30;99.90;;;;;;5020218;28;20158;-82
2023/08/17 06:32:57;;;;;;;4.55;2.88;;;16.20;99.90;;;;;;5014333;28;20026;-84
2023/08/17 06:35:22;;;;;;;4.60;2.72;;;16.20;99.90;;;;;;5010838;28;20050;-85
2023/08/17 06:37:48;;;;;;;2.78;2.38;;;16.30;99.90;;;;;;5013787;28;20109;-84
2023/08/17 06:40:13;;;;;;;4.25;2.72;;;16.20;99.90;;;;;;5011999;28;20168;-83
2023/08/17 06:42:39;;;;;;;3.03;2.60;;;16.30;99.90;;;;;;5011000;28;20021;-84
2023/08/17 06:45:05;;;;;;;4.32;2.67;;;16.20;99.90;;;;;;5011048;28;20480;-83
2023/08/17 06:47:31;;;;;;;10.20;3.35;;;16.20;99.90;;;;;;5027319;28;20044;-84
2023/08/17 06:49:59;;;;;;;5.05;3.10;;;16.20;99.90;;;;;;5015568;28;20021;-84
2023/08/17 06:52:25;;;;;;;6.35;2.33;;;16.20;99.90;;;;;;5028329;28;20034;-83
2023/08/17 06:54:50;;;;;;;8.55;2.45;;;16.20;99.90;;;;;;5035532;28;20018;-82
2023/08/17 06:57:16;;;;;;;3.90;3.05;;;16.20;99.90;;;;;;5033117;28;20026;-84
2023/08/17 06:59:41;;;;;;;6.65;2.10;;;16.20;99.90;;;;;;5030845;28;20045;-83
2023/08/17 07:02:07;;;;;;;4.03;2.72;;;16.20;99.90;;;;;;5014085;28;20030;-84
2023/08/17 07:04:32;;;;;;;2.75;2.50;;;16.10;99.90;;;;;;5023688;28;20025;-84
2023/08/17 07:06:59;;;;;;;2.83;2.60;;;16.20;99.90;;;;;;5014613;28;20049;-84
2023/08/17 07:09:25;;;;;;;5.50;3.05;;;16.20;99.90;;;;;;5012103;28;20037;-84
2023/08/17 07:11:50;;;;;;;2.95;2.70;;;16.10;99.90;;;;;;5012235;28;20030;-83
2023/08/17 07:14:16;;;;;;;5.70;3.72;;;16.10;99.90;;;;;;5019246;28;20030;-84
2023/08/17 07:16:41;;;;;;;5.72;3.42;;;16.10;99.90;;;;;;5022304;28;20021;-84
2023/08/17 07:19:07;;;;;;;7.50;3.58;;;16.10;99.90;;;;;;5020851;28;20504;-84
2023/08/17 07:21:32;;;;;;;6.85;2.92;;;16.10;99.90;;;;;;5012159;28;20458;-84
2023/08/17 07:23:58;;;;;;;4.75;3.30;;;16.10;99.90;;;;;;5030153;28;20025;-82
2023/08/17 07:26:23;;;;;;;7.38;3.92;;;16.10;99.90;;;;;;5022041;28;20574;-84
2023/08/17 07:28:49;;;;;;;4.03;2.78;;;16.10;99.90;;;;;;5010910;28;20537;-83
2023/08/17 07:31:15;;;;;;;4.88;3.30;;;16.10;99.90;;;;;;5014586;28;20040;-84
2023/08/17 07:33:41;;;;;;;5.80;3.25;;;16.10;99.90;;;;;;5010200;28;20500;-84
2023/08/17 07:36:06;;;;;;;3.72;2.70;;;16.10;99.90;;;;;;5009452;28;20060;-83
2023/08/17 07:38:32;;;;;;;7.68;3.50;;;16.20;99.90;;;;;;5012563;28;20041;-84
2023/08/17 07:40:58;;;;;;;4.60;3.08;;;16.20;99.90;;;;;;5021522;28;20044;-83
2023/08/17 07:43:24;;;;;;;3.80;2.97;;;16.20;99.90;;;;;;5017416;28;20048;-83
2023/08/17 07:45:54;;;;;;;3.42;2.80;;;16.20;99.90;;;;;;5005116;28;20481;-83
2023/08/17 07:48:20;;;;;;;8.10;3.25;;;16.20;99.90;;;;;;5018669;28;20056;-84
2023/08/17 07:50:52;;;;;;;4.43;3.05;;;16.20;99.90;;;;;;5013503;28;20052;-83
2023/08/17 07:53:18;;;;;;;5.70;3.75;;;16.20;99.90;;;;;;5016272;28;20113;-83
2023/08/17 07:55:44;;;;;;;3.95;3.00;;;16.20;99.90;;;;;;5009261;28;20520;-83
2023/08/17 07:58:09;;;;;;;3.65;3.10;;;16.20;99.90;;;;;;5022226;28;20026;-83
2023/08/17 08:00:35;;;;;;;7.53;3.42;;;16.20;99.90;;;;;;5010115;28;20037;-85
2023/08/17 08:03:01;;;;;;;5.20;3.47;;;16.20;99.90;;;;;;5015789;28;20029;-85
2023/08/17 08:05:26;;;;;;;4.18;3.78;;;16.20;99.90;;;;;;5017253;28;20026;-84
2023/08/17 08:07:53;;;;;;;4.85;3.58;;;16.30;99.90;;;;;;5016678;28;20068;-82
2023/08/17 08:10:18;;;;;;;6.30;3.53;;;16.30;99.90;;;;;;5008295;28;20028;-84
2023/08/17 08:12:44;;;;;;;7.32;4.13;;;16.30;99.90;;;;;;5019723;28;20029;-87
2023/08/17 08:15:10;;;;;;;7.47;3.45;;;16.30;99.90;;;;;;5013992;28;20543;-84
2023/08/17 08:17:35;;;;;;;6.35;3.30;;;16.30;99.90;;;;;;5018296;28;20033;-83
2023/08/17 08:20:01;;;;;;;7.45;3.80;;;16.30;99.90;;;;;;5009708;28;20026;-84
2023/08/17 08:22:27;;;;;;;7.40;4.75;;;16.30;99.90;;;;;;5017641;28;20120;-84
2023/08/17 08:24:53;;;;;;;6.10;4.13;;;16.30;99.90;;;;;;5013270;28;20114;-86
2023/08/17 08:27:18;;;;;;;4.35;3.47;;;16.30;99.90;;;;;;5016134;28;20025;-84
2023/08/17 08:29:44;;;;;;;5.50;3.65;;;16.30;99.90;;;;;;5017499;28;20030;-84
2023/08/17 08:32:10;;;;;;;4.72;3.13;;;16.40;99.90;;;;;;5013343;28;20057;-84
2023/08/17 08:34:35;;;;;;;7.78;3.40;;;16.40;99.90;;;;;;5017165;28;20033;-84
2023/08/17 08:37:01;;;;;;;5.60;5.03;;;16.40;99.90;;;;;;5028557;28;20033;-86
2023/08/17 08:39:27;;;;;;;7.20;3.92;;;16.40;99.90;;;;;;5023511;28;20099;-85
2023/08/17 08:41:53;;;;;;;4.80;3.80;;;16.40;99.90;;;;;;5020346;28;20547;-85
2023/08/17 08:44:19;;;;;;;3.97;3.55;;;16.50;99.90;;;;;;5012009;28;20026;-85
2023/08/17 08:46:45;;;;;;;4.43;3.85;;;16.50;99.90;;;;;;5018438;28;20024;-85
2023/08/17 08:49:12;;;;;;;7.32;4.28;;;16.50;99.90;;;;;;5021873;28;20025;-84
2023/08/17 08:51:43;;;;;;;5.40;4.10;;;16.50;99.90;;;;;;5015309;28;20084;-85
2023/08/17 08:54:13;;;;;;;4.88;3.63;;;16.50;99.90;;;;;;5017294;28;20030;-85
2023/08/17 08:56:41;;;;;;;5.25;4.38;;;16.50;99.90;;;;;;5023713;28;20068;-85
2023/08/17 08:59:09;;;;;;;6.90;3.92;;;16.50;99.90;;;;;;5017835;28;20033;-85
2023/08/17 09:01:35;;;;;;;4.80;3.65;;;16.60;99.90;;;;;;5021231;28;20048;-85
2023/08/17 09:04:02;;;;;;;3.88;2.97;;;16.60;99.90;;;;;;5018708;28;20026;-84
2023/08/17 09:06:29;;;;;;;8.85;4.60;;;16.60;99.90;;;;;;5028178;28;20044;-83
2023/08/17 09:08:56;;;;;;;6.78;3.72;;;16.60;99.90;;;;;;5019835;28;20025;-84
2023/08/17 09:11:22;;;;;;;4.57;3.45;;;16.60;99.90;;;;;;5020932;28;20560;-83
2023/08/17 09:13:48;;;;;;;7.78;4.15;;;16.70;99.90;;;;;;5020815;28;20061;-82
2023/08/17 09:16:13;;;;;;;5.03;3.85;;;16.70;99.90;;;;;;5013054;28;20037;-83
2023/08/17 09:18:39;;;;;;;7.22;4.68;;;16.70;99.90;;;;;;5026790;28;20029;-83
2023/08/17 09:21:05;;;;;;;5.82;4.28;;;16.70;99.90;;;;;;5020286;28;20040;-82
2023/08/17 09:23:30;;;;;;;6.95;3.83;;;16.70;99.90;;;;;;5027374;28;20045;-82
2023/08/17 09:25:58;;;;;;;5.43;3.75;;;16.70;99.90;;;;;;5020252;28;20037;-83
2023/08/17 09:28:24;;;;;;;4.72;4.22;;;16.70;99.90;;;;;;5019917;28;20022;-83
2023/08/17 09:30:54;;;;;;;9.20;4.07;;;16.80;99.90;;;;;;5014822;28;20029;-82
2023/08/17 09:33:28;;;;;;;4.15;3.47;;;16.80;99.90;;;;;;5012122;28;20087;-83
2023/08/17 09:35:55;;;;;;;5.25;4.00;;;16.80;99.90;;;;;;5009969;28;20030;-83
2023/08/17 09:38:21;;;;;;;5.40;3.47;;;16.80;99.90;;;;;;5016442;28;20030;-83
2023/08/17 09:40:47;;;;;;;5.72;3.35;;;16.90;99.90;;;;;;5020930;28;20022;-82
2023/08/17 09:43:17;;;;;;;3.10;2.50;;;16.90;99.90;;;;;;5015119;28;20490;-84
2023/08/17 09:45:48;;;;;;;3.72;2.08;;;16.90;99.90;;;;;;5015971;28;20234;-84
2023/08/17 09:48:17;;;;;;;2.47;1.60;;;16.80;99.90;;;;;;5015253;28;20018;-84
2023/08/17 09:50:43;;;;;;;4.32;1.98;;;16.80;99.90;;;;;;5013613;28;20370;-84
2023/08/17 09:53:16;;;;;;;1.88;1.70;;;16.80;99.90;;;;;;5028642;28;20061;-83
2023/08/17 09:55:43;;;;;;;2.83;2.00;;;16.70;99.90;;;;;;5025980;28;20036;-84
2023/08/17 09:58:09;;;;;;;2.25;1.40;;;16.80;99.90;;;;;;5014367;28;20745;-83
2023/08/17 10:00:36;;;;;;;5.50;1.92;;;16.80;99.90;;;;;;5013143;28;20042;-83
2023/08/17 10:03:04;;;;;;;1.92;1.73;;;16.80;99.90;;;;;;5020011;28;20500;-83
2023/08/17 10:05:37;;;;;;;1.90;1.67;;;16.90;99.90;;;;;;5015751;28;20499;-83
2023/08/17 10:08:05;;;;;;;2.22;2.05;;;16.90;99.90;;;;;;5011973;28;20029;-83
2023/08/17 10:10:34;;;;;;;2.25;2.05;;;16.90;99.90;;;;;;5016301;28;20477;-83
2023/08/17 10:13:16;;;;;;;1.98;1.77;;;16.90;99.90;;;;;;5017147;28;20044;-84
2023/08/17 10:15:53;;;;;;;3.25;1.70;;;16.90;99.90;;;;;;5017702;28;20033;-83
2023/08/17 10:18:49;;;;;;;3.28;2.05;;;17.00;99.90;;;;;;5018960;28;20033;-83
2023/08/17 10:21:22;;;;;;;4.38;1.95;;;17.00;99.90;;;;;;5017521;28;20091;-84
2023/08/17 10:23:48;;;;;;;2.38;1.77;;;16.90;99.90;;;;;;5022440;28;20037;-83
2023/08/17 10:26:15;;;;;;;2.20;1.50;;;16.90;99.90;;;;;;5013755;28;20018;-82
2023/08/17 10:28:41;;;;;;;2.05;1.60;;;17.00;99.90;;;;;;5013946;28;20022;-83
2023/08/17 10:31:07;;;;;;;3.78;2.20;;;16.90;99.90;;;;;;5019690;28;20030;-84
2023/08/17 10:33:33;;;;;;;4.55;1.40;;;16.90;99.90;;;;;;5030948;28;20056;-84
2023/08/17 10:36:01;;;;;;;2.15;1.95;;;16.90;99.90;;;;;;5021955;28;20057;-84
2023/08/17 10:38:26;;;;;;;9.57;2.13;;;16.90;99.90;;;;;;5011457;28;20124;-84
2023/08/17 10:41:09;;;;;;;3.42;2.60;;;17.00;99.90;;;;;;5012682;28;20117;-84
2023/08/17 10:43:52;;;;;;;4.13;2.58;;;17.00;99.90;;;;;;5011390;28;20110;-85
2023/08/17 10:46:18;;;;;;;6.97;2.35;;;17.00;99.90;;;;;;5011696;28;20389;-84
2023/08/17 10:48:44;;;;;;;5.10;2.63;;;17.10;99.90;;;;;;5025846;28;20006;-85
2023/08/17 10:51:13;;;;;;;3.35;2.53;;;17.00;99.90;;;;;;5026057;28;20022;-85
2023/08/17 10:53:42;;;;;;;6.93;2.72;;;17.10;99.90;;;;;;5018685;28;20116;-85
2023/08/17 10:56:11;;;;;;;5.93;3.00;;;17.10;99.90;;;;;;5016917;28;20033;-85
2023/08/17 10:58:37;;;;;;;6.43;3.00;;;17.20;99.90;;;;;;5013847;28;20477;-85
2023/08/17 11:01:03;;;;;;;4.13;3.10;;;17.20;99.90;;;;;;5011969;28;20053;-86
2023/08/17 11:03:28;;;;;;;4.70;3.33;;;17.20;99.90;;;;;;5012360;28;20040;-83
2023/08/17 11:05:56;;;;;;;4.18;2.90;;;17.30;99.90;;;;;;5027752;28;20511;-85
2023/08/17 11:08:55;;;;;;;3.22;2.90;;;17.30;99.90;;;;;;5016812;28;20029;-86
2023/08/17 11:11:22;;;;;;;5.18;2.78;;;17.30;99.90;;;;;;5014106;28;20041;-85
2023/08/17 11:13:48;;;;;;;6.15;3.72;;;17.40;99.90;;;;;;5023309;28;20025;-86
2023/08/17 11:16:16;;;;;;;4.22;3.28;;;17.40;99.90;;;;;;5032528;28;20025;-85
2023/08/17 11:18:42;;;;;;;4.15;3.03;;;17.40;99.90;;;;;;5019309;28;20026;-85
2023/08/17 11:21:09;;;;;;;4.47;3.15;;;17.50;99.90;;;;;;5019311;28;20034;-83
2023/08/17 11:23:36;;;;;;;10.43;4.10;;;17.50;99.90;;;;;;5025875;28;20037;-84
2023/08/17 11:26:02;;;;;;;6.85;3.42;;;17.50;99.90;;;;;;5014725;28;20632;-84
2023/08/17 11:28:35;;;;;;;4.07;3.47;;;17.40;99.90;;;;;;5011568;28;20033;-84
2023/08/17 11:31:03;;;;;;;4.15;3.75;;;17.50;99.90;;;;;;5009832;28;20105;-85
2023/08/17 11:33:30;;;;;;;4.65;3.70;;;17.50;99.90;;;;;;5021292;28;20071;-85
2023/08/17 11:35:56;;;;;;;5.55;3.08;;;17.60;99.90;;;;;;5016826;28;20109;-86
2023/08/17 11:38:22;;;;;;;4.53;3.17;;;17.60;99.90;;;;;;5010906;28;20118;-84
2023/08/17 11:40:51;;;;;;;3.78;2.65;;;17.60;99.90;;;;;;5011147;28;20057;-85
2023/08/17 11:43:17;;;;;;;4.22;2.88;;;17.60;99.90;;;;;;5010885;28;20084;-84
2023/08/17 11:45:43;;;;;;;3.65;2.10;;;17.60;99.90;;;;;;5021397;28;20025;-85
2023/08/17 11:48:09;;;;;;;2.40;2.20;;;17.60;99.90;;;;;;5013903;28;20496;-85
2023/08/17 11:50:35;;;;;;;2.67;2.15;;;17.60;99.90;;;;;;5010464;28;20032;-83
2023/08/17 11:53:00;;;;;;;4.32;2.58;;;17.60;99.90;;;;;;5011243;28;20459;-85
2023/08/17 11:55:26;;;;;;;3.90;1.90;;;17.60;99.90;;;;;;5008081;28;20091;-86
2023/08/17 11:57:52;;;;;;;2.95;2.22;;;17.50;99.90;;;;;;5017810;28;20080;-87
2023/08/17 12:00:20;;;;;;;5.32;2.70;;;17.60;99.90;;;;;;5017359;28;20473;-88
2023/08/17 12:02:49;;;;;;;3.35;2.20;;;17.60;99.90;;;;;;5010083;28;20104;-86
2023/08/17 12:05:27;;;;;;;2.42;1.90;;;17.50;99.90;;;;;;5010068;28;20217;-88
2023/08/17 12:07:53;;;;;;;2.63;2.05;;;17.40;99.90;;;;;;5004220;28;20022;-86
2023/08/17 12:10:19;;;;;;;3.83;1.73;;;17.30;99.90;;;;;;5008882;28;20025;-87
2023/08/17 12:12:47;;;;;;;5.05;2.58;;;17.30;99.90;;;;;;5017953;28;20018;-86
2023/08/17 12:15:13;;;;;;;5.72;2.50;;;17.20;99.90;;;;;;5018720;28;20049;-85
2023/08/17 12:17:46;;;;;;;2.20;2.00;;;17.30;99.90;;;;;;5009990;28;20488;-83
2023/08/17 12:20:21;;;;;;;1.90;1.70;;;17.30;99.90;;;;;;5013212;28;20103;-84
2023/08/17 12:22:48;;;;;;;2.42;2.15;;;17.30;99.90;;;;;;5011883;28;20025;-85
2023/08/17 12:25:16;;;;;;;4.72;3.05;;;17.40;99.90;;;;;;5025233;28;20029;-85
2023/08/17 12:27:41;;;;;;;2.58;1.95;;;17.40;99.90;;;;;;5017716;28;20029;-83
2023/08/17 12:30:24;;;;;;;5.97;2.35;;;17.40;99.90;;;;;;5014404;28;20123;-85
2023/08/17 12:32:49;;;;;;;3.70;2.45;;;17.40;99.90;;;;;;5018270;28;20080;-85
2023/08/17 12:35:15;;;;;;;11.00;2.13;;;17.30;99.90;;;;;;5008351;28;20049;-85
2023/08/17 12:37:41;;;;;;;11.65;2.70;;;17.30;99.90;;;;;;5020874;28;20098;-85
2023/08/17 12:40:07;;;;;;;3.13;2.13;;;17.40;99.90;;;;;;5023177;28;20026;-85
2023/08/17 12:42:33;;;;;;;4.40;2.50;;;17.30;99.90;;;;;;5020341;28;20053;-85
2023/08/17 12:44:59;;;;;;;4.10;2.17;;;17.30;99.90;;;;;;5017750;28;20053;-84